Nakhon Ratchasima, Thailand
Current Conditions -  °F | °C
As of 7:00 PM on Thursday 23 Oct 2014 (Local Time) from VTUK Reporting Station
Few Clouds Few Clouds  
Wind Chill: 81°   Ceiling: Unl
Heat Index: 84°   Visibility: 6mi
Dew Point: 70°   Wind: 0mph
Humidity: 70%   Direction: NA
Pressure: 29.85"   Gusts: NA
Location:  15°N, 102.1°E
Report Text: VTUK 231200Z 00000KT 9999 FEW030 27/21 Q1011 A2986RWY03 INFO N
Loading
Personal Weather Stations






























Interactive Weather Map
Tropical Storm Tracking
New forecast layout! Learn more

10-Day Weather Forecast

Advertisements
Track Severe Weather on mobile